Faisalabad Weather



Faisalabad's Current Weather

Temprature 39.24o few clouds

few clouds

Rain: 0 %

Min Temprature39.24o
Max Temprature39.24o
Humidity15
Wind Speed1.05 m/h
Sun Rise05:16:43
Sun Set18:51:37
Current Time: 08-May-2021 14:49:58
Lat/Lon: 31.4167, 73.0833




Faisalabad's Geo Location



Faisalabad's Weather Forecast

Time Overall Temp Min Temp Max Temp Humidity Wind Speed Rain
08-May-2021 (Sat)
17:00:00 few clouds 39.070 38.770 39.070 15 1.01 m/h 0 %
20:00:00 few clouds 35.050 32.970 35.050 22 4.77 m/h 0 %
23:00:00 few clouds 29.760 29.760 29.760 32 3.57 m/h 0 %
09-May-2021 (Sun)
02:00:00 clear sky 28.540 28.540 28.540 32 1.49 m/h 0 %
05:00:00 scattered clouds 28.090 28.090 28.090 31 1.93 m/h 0 %
08:00:00 broken clouds 32.850 32.850 32.850 24 3.48 m/h 0 %
11:00:00 scattered clouds 38.730 38.730 38.730 15 3.42 m/h 0 %
14:00:00 broken clouds 40.610 40.610 40.610 11 2.09 m/h 0 %
17:00:00 broken clouds 33.430 33.430 33.430 21 6.66 m/h 0 %
20:00:00 light rain 31.060 31.060 31.060 26 6.93 m/h 15 %
23:00:00 broken clouds 27.520 27.520 27.520 40 3.6 m/h 0 %
10-May-2021 (Mon)
02:00:00 few clouds 26.750 26.750 26.750 40 2.65 m/h 0 %
05:00:00 light rain 25.250 25.250 25.250 45 3.04 m/h 24 %
08:00:00 overcast clouds 31.290 31.290 31.290 29 3.22 m/h 0 %
11:00:00 overcast clouds 37.430 37.430 37.430 18 3.9 m/h 0 %
14:00:00 broken clouds 41.050 41.050 41.050 12 2.48 m/h 0 %
17:00:00 broken clouds 41.260 41.260 41.260 11 3 m/h 0 %
20:00:00 scattered clouds 35.540 35.540 35.540 16 3.03 m/h 0 %
23:00:00 few clouds 32.040 32.040 32.040 21 3.3 m/h 0 %
11-May-2021 (Tue)
02:00:00 clear sky 30.200 30.200 30.200 26 3.21 m/h 0 %
05:00:00 clear sky 28.000 28.000 28.000 32 1.78 m/h 0 %
08:00:00 clear sky 33.440 33.440 33.440 22 1.7 m/h 0 %
11:00:00 clear sky 39.410 39.410 39.410 15 2.67 m/h 0 %
14:00:00 clear sky 42.930 42.930 42.930 10 2.74 m/h 0 %
17:00:00 few clouds 41.330 41.330 41.330 11 5.67 m/h 0 %
20:00:00 broken clouds 32.080 32.080 32.080 26 5.91 m/h 0 %
23:00:00 broken clouds 31.650 31.650 31.650 26 4.11 m/h 0 %
12-May-2021 (Wed)
02:00:00 light rain 29.040 29.040 29.040 34 3.21 m/h 42 %
05:00:00 overcast clouds 28.040 28.040 28.040 37 3.39 m/h 0 %
08:00:00 overcast clouds 30.840 30.840 30.840 31 1.17 m/h 0 %
11:00:00 overcast clouds 35.740 35.740 35.740 23 1.34 m/h 0 %
14:00:00 overcast clouds 38.600 38.600 38.600 18 2.15 m/h 0 %
17:00:00 heavy intensity rain 22.110 22.110 22.110 84 9.66 m/h 1,290 %
20:00:00 moderate rain 25.450 25.450 25.450 53 5.91 m/h 371 %
23:00:00 light rain 24.810 24.810 24.810 58 4.34 m/h 14 %
13-May-2021 (Thu)
02:00:00 overcast clouds 24.910 24.910 24.910 59 1.23 m/h 0 %
05:00:00 broken clouds 24.310 24.310 24.310 60 0.59 m/h 0 %
08:00:00 broken clouds 27.560 27.560 27.560 47 3.03 m/h 0 %
11:00:00 broken clouds 32.010 32.010 32.010 33 3.75 m/h 0 %
14:00:00 light rain 29.140 29.140 29.140 39 6.13 m/h 15 %


Faisalabad's Tourist Spots

Parks and Zoos in Faisalabad

Famous Cities (60)